Terminal Aerodrome Forecast
Issued by NWS Aberdeen, SD

Home | Current Version | Previous Version | Text Only | Print | Product List | Glossary On
Versions: 1 2 3 4 5 6 7 8 9 10 11 12 13 14 15 16 17 18 19 20 21 22 23 24 25 26 27 28 29 30 31 32 33 34 35 36 37 38 39 40 41 42 43 44 45 46 47 48 49
597
FTUS43 KABR 191320 AAC
TAFABR
TAF AMD
KABR 191320Z 1913/2012 VRB04KT 1/4SM FZFG VV002
     FM191500 VRB06KT 1/2SM FZFG OVC002
     FM191900 18009KT P6SM BKN008
     FM192300 18008KT 1SM BR BKN008
     FM200100 17007KT 1/2SM FG OVC003=

USA.gov is the U.S. government's official web portal to all federal, state and local government web resources and services.